Stevens Point, WI

7:40 PM CST on December 02, 2016 (GMT -0600)
Forest Circle neighborhood | | Change Station

Elev 1099 ft 44.50 °N, 89.53 °W | Updated 25 seconds ago

Overcast
Overcast
30.9 °F
Feels Like 31 °F
N
0.0
Wind Variable Wind from WNW
Gusts 0.0 mph

Today
High -- | Low -- °F
--% Chance of Precip.
Yesterday
High -- | Low -- °F
Precip. -- in
Pressure 30.26 in
Visibility 10.0 miles
Clouds Overcast 2000 ft
Windchill 31 °F
Dew Point 7 °F
Humidity 36%
Rainfall 0.00 in
Snow Depth Not available.
7:16 AM 4:19 PM
Waxing Crescent, 11% visible
METAR KSTE 030135Z AUTO 29006KT 10SM OVC020 M02/M05 A3026 RMK AO2 T10161055
Pressure 30.26 in
Visibility 10.0 miles
Clouds Overcast 2000 ft
Windchill 31 °F
Dew Point 7 °F
Humidity 36%
Rainfall 0.00 in
Snow Depth Not available.
7:16 AM 4:19 PM
Waxing Crescent, 11% visible
METAR KSTE 030135Z AUTO 29006KT 10SM OVC020 M02/M05 A3026 RMK AO2 T10161055

10-Day Weather Forecast

Almanac

Astronomy

Dec. 02, 2016 Rise Set
Actual Time
Civil Twilight
Nautical Twilight
Astronomical Twilight
Moon
Length of Visible Light
Length of Day
Tomorrow will be .
, % of the Moon is Illuminated

Today's Extremes

State Highs State Lows

Community

WunderPhotos

Upload Photos

1,955,390 photos uploaded!

WunderBlog® & News

Nearby

Air Quality

  Air Quality AQ Index Pollutant
Not available.

Snow Depth

Station Depth Elevation

Earthquake Activity

City Distance Mag. Time & Date
Minimum magnitude displayed is 2.5.

Coastal Water Temperatures

Place Temperature

Stations

Nearby Weather Stations

Station Location Temp. Windchill Dew Point Humidity Wind Precip. Elev Updated Type
                   

Watches & Warnings

There are currently no watches in effect.